Time;durP1;ratioP1;P1;durP2;ratioP2;P2;SDS_P1;SDS_P2;PMS_P1;PMS_P2;Temp;Humidity;BMP_temperature;BMP_pressure;BME280_temperature;BME280_humidity;BME280_pressure;Samples;Min_cycle;Max_cycle;Signal;HPM_P1;HPM_P2
2021/05/24 00:02:14;;;;;;;1.60;1.27;;;17.70;56.20;;;;;;5053928;28;20712;-63
2021/05/24 00:04:40;;;;;;;1.17;1.08;;;17.70;56.20;;;;;;5053174;28;20178;-64
2021/05/24 00:07:06;;;;;;;1.40;1.30;;;17.70;56.20;;;;;;5053857;28;20636;-64
2021/05/24 00:09:32;;;;;;;2.08;1.20;;;17.70;56.20;;;;;;5053751;28;20182;-63
2021/05/24 00:11:57;;;;;;;1.60;1.35;;;17.70;56.20;;;;;;5053265;28;20638;-63
2021/05/24 00:14:25;;;;;;;1.60;1.50;;;17.70;56.20;;;;;;5054251;28;20208;-63
2021/05/24 00:16:50;;;;;;;1.30;1.02;;;17.60;56.10;;;;;;5052448;28;20599;-63
2021/05/24 00:19:16;;;;;;;2.05;1.30;;;17.60;56.10;;;;;;5053799;28;20645;-63
2021/05/24 00:21:42;;;;;;;1.20;1.10;;;17.70;56.20;;;;;;5053510;28;20194;-64
2021/05/24 00:24:07;;;;;;;1.02;0.93;;;17.60;56.10;;;;;;5052721;28;20189;-63
2021/05/24 00:26:33;;;;;;;2.13;1.50;;;17.60;56.80;;;;;;5053190;28;20175;-63
2021/05/24 00:28:58;;;;;;;1.33;1.23;;;17.60;56.10;;;;;;5053688;28;20177;-63
2021/05/24 00:31:24;;;;;;;2.42;1.35;;;17.60;56.10;;;;;;5052644;28;20202;-63
2021/05/24 00:33:49;;;;;;;1.58;1.40;;;17.60;56.10;;;;;;5053139;28;20202;-63
2021/05/24 00:36:15;;;;;;;1.17;1.00;;;17.60;56.10;;;;;;5053161;28;20791;-64
2021/05/24 00:38:40;;;;;;;2.30;1.20;;;17.60;56.10;;;;;;5052168;28;20215;-63
2021/05/24 00:41:06;;;;;;;1.35;1.25;;;17.60;56.10;;;;;;5053180;28;20171;-63
2021/05/24 00:43:31;;;;;;;1.40;1.25;;;17.60;56.10;;;;;;5053013;28;20656;-63
2021/05/24 00:45:57;;;;;;;2.78;1.08;;;17.60;56.10;;;;;;5035014;28;20186;-63
2021/05/24 00:48:22;;;;;;;1.25;1.13;;;17.60;56.10;;;;;;5053545;28;20199;-63
2021/05/24 00:50:48;;;;;;;1.20;1.10;;;17.60;56.10;;;;;;5053070;28;20304;-63
2021/05/24 00:53:13;;;;;;;1.38;1.17;;;17.60;56.10;;;;;;5034707;28;20198;-63
2021/05/24 00:55:39;;;;;;;1.30;1.20;;;17.60;56.00;;;;;;5052569;28;20235;-64
2021/05/24 00:58:05;;;;;;;1.15;1.05;;;17.60;56.00;;;;;;5053081;28;20638;-64
2021/05/24 01:00:38;;;;;;;1.30;1.20;;;17.60;56.00;;;;;;5051790;28;20171;-64
2021/05/24 01:03:05;;;;;;;1.58;1.25;;;17.60;56.00;;;;;;5052948;28;20193;-63
2021/05/24 01:05:30;;;;;;;2.22;1.50;;;17.60;56.30;;;;;;5052814;28;20183;-64
2021/05/24 01:07:56;;;;;;;1.85;1.38;;;17.60;56.00;;;;;;5051318;28;20533;-63
2021/05/24 01:10:22;;;;;;;1.17;1.08;;;17.60;56.10;;;;;;5052652;28;20190;-63
2021/05/24 01:12:47;;;;;;;1.88;1.17;;;17.60;56.00;;;;;;5052351;28;20195;-63
2021/05/24 01:15:13;;;;;;;1.02;0.90;;;17.60;56.00;;;;;;5034077;28;20186;-63
2021/05/24 01:17:39;;;;;;;1.40;1.15;;;17.60;56.00;;;;;;5052334;28;20183;-63
2021/05/24 01:20:05;;;;;;;1.42;1.33;;;17.60;56.00;;;;;;5051963;28;20198;-63
2021/05/24 01:22:33;;;;;;;2.22;1.13;;;17.60;56.00;;;;;;5052427;28;20186;-63
2021/05/24 01:24:58;;;;;;;1.00;0.90;;;17.60;56.00;;;;;;5052376;28;20695;-63
2021/05/24 01:27:24;;;;;;;0.90;0.90;;;17.60;56.00;;;;;;5051642;28;20171;-63
2021/05/24 01:29:49;;;;;;;2.08;1.05;;;17.50;56.00;;;;;;5052334;28;20274;-63
2021/05/24 01:32:15;;;;;;;1.48;1.17;;;17.50;56.00;;;;;;5052618;28;20167;-63
2021/05/24 01:34:40;;;;;;;1.42;0.95;;;17.50;56.00;;;;;;5051415;28;20171;-63
2021/05/24 01:37:06;;;;;;;1.20;1.10;;;17.50;56.00;;;;;;5052419;28;20704;-63
2021/05/24 01:39:31;;;;;;;1.52;1.30;;;17.50;56.00;;;;;;5052157;28;20223;-63
2021/05/24 01:41:57;;;;;;;1.50;1.33;;;17.50;56.10;;;;;;5051684;28;20187;-63
2021/05/24 01:44:29;;;;;;;1.02;0.90;;;17.50;56.00;;;;;;5052301;28;20256;-63
2021/05/24 01:46:55;;;;;;;1.15;1.08;;;17.50;56.00;;;;;;5052253;28;20194;-63
2021/05/24 01:49:20;;;;;;;1.63;0.93;;;17.50;56.00;;;;;;5051915;28;20163;-63
2021/05/24 01:51:46;;;;;;;0.88;0.88;;;17.50;56.00;;;;;;5052086;28;20233;-63
2021/05/24 01:54:13;;;;;;;2.03;1.33;;;17.50;56.00;;;;;;5052212;28;20182;-63
2021/05/24 01:56:40;;;;;;;1.65;1.05;;;17.50;56.00;;;;;;5051111;28;20206;-64
2021/05/24 01:59:05;;;;;;;0.90;0.90;;;17.50;56.00;;;;;;5052521;28;20179;-63
2021/05/24 02:01:31;;;;;;;1.58;1.17;;;17.50;56.00;;;;;;5052181;28;20171;-64
2021/05/24 02:03:56;;;;;;;1.25;1.10;;;17.50;56.00;;;;;;5051419;28;20167;-63
2021/05/24 02:06:21;;;;;;;1.08;0.98;;;17.50;56.00;;;;;;5052295;28;20179;-63
2021/05/24 02:08:47;;;;;;;0.90;0.90;;;17.50;56.00;;;;;;5051859;28;20559;-63
2021/05/24 02:11:14;;;;;;;1.45;0.90;;;17.50;56.00;;;;;;5051439;28;20197;-64
2021/05/24 02:13:45;;;;;;;1.10;1.00;;;17.50;56.00;;;;;;5052115;28;20175;-63
2021/05/24 02:16:11;;;;;;;1.13;1.00;;;17.50;56.00;;;;;;5051623;28;20211;-63
2021/05/24 02:18:36;;;;;;;0.88;0.88;;;17.50;56.00;;;;;;5054113;28;20175;-63
2021/05/24 02:21:03;;;;;;;0.70;0.70;;;17.50;56.00;;;;;;5055870;28;20171;-63
2021/05/24 02:23:28;;;;;;;0.85;0.80;;;17.50;56.00;;;;;;5054970;28;20626;-63
2021/05/24 02:25:54;;;;;;;1.52;0.88;;;17.50;56.00;;;;;;5055328;28;20178;-63
2021/05/24 02:28:19;;;;;;;1.48;1.02;;;17.50;56.00;;;;;;5055935;28;20179;-63
2021/05/24 02:30:45;;;;;;;1.40;0.93;;;17.50;56.00;;;;;;5055214;28;20225;-63
2021/05/24 02:33:10;;;;;;;1.02;0.93;;;17.40;56.30;;;;;;5055697;28;20234;-63
2021/05/24 02:35:36;;;;;;;1.13;0.93;;;17.50;56.00;;;;;;5055391;28;20654;-63
2021/05/24 02:38:01;;;;;;;1.23;1.00;;;17.50;56.00;;;;;;5054741;28;20183;-63
2021/05/24 02:40:30;;;;;;;2.42;0.88;;;17.50;56.00;;;;;;5055227;28;20230;-63
2021/05/24 02:42:55;;;;;;;1.02;0.95;;;17.50;56.00;;;;;;5055656;28;20179;-63
2021/05/24 02:45:21;;;;;;;0.98;0.85;;;17.40;56.00;;;;;;5054576;28;20625;-63
2021/05/24 02:47:47;;;;;;;0.85;0.80;;;17.40;56.00;;;;;;5055045;28;20203;-64
2021/05/24 02:50:16;;;;;;;1.10;1.00;;;17.50;56.00;;;;;;5055479;28;20190;-63
2021/05/24 02:52:42;;;;;;;1.00;0.88;;;17.40;56.00;;;;;;5054280;28;20210;-63
2021/05/24 02:55:08;;;;;;;0.80;0.80;;;17.40;56.00;;;;;;5055135;28;20190;-64
2021/05/24 02:57:33;;;;;;;1.10;1.00;;;17.40;56.00;;;;;;5055288;28;20214;-64
2021/05/24 02:59:59;;;;;;;1.25;0.82;;;17.40;56.00;;;;;;5054593;28;20171;-64
2021/05/24 03:02:29;;;;;;;1.02;1.02;;;17.40;56.00;;;;;;5055214;28;20186;-64
2021/05/24 03:04:54;;;;;;;1.45;0.93;;;17.40;56.00;;;;;;5054674;28;20206;-64
2021/05/24 03:07:20;;;;;;;0.70;0.70;;;17.40;56.00;;;;;;5054308;28;20215;-64
2021/05/24 03:09:45;;;;;;;1.00;0.95;;;17.40;56.00;;;;;;5054669;28;20190;-63
2021/05/24 03:12:11;;;;;;;1.13;0.90;;;17.40;56.00;;;;;;5055396;28;20194;-63
2021/05/24 03:14:36;;;;;;;1.60;0.80;;;17.40;56.00;;;;;;5054164;28;20222;-63
2021/05/24 03:17:02;;;;;;;1.00;0.85;;;17.40;56.10;;;;;;5054892;28;20680;-63
2021/05/24 03:19:27;;;;;;;1.30;1.10;;;17.40;56.10;;;;;;5054783;28;20178;-64
2021/05/24 03:21:53;;;;;;;1.33;1.23;;;17.40;56.10;;;;;;5054038;28;20171;-64
2021/05/24 03:24:18;;;;;;;1.50;0.90;;;17.40;56.10;;;;;;5054569;28;20168;-64
2021/05/24 03:26:44;;;;;;;1.38;0.90;;;17.40;56.10;;;;;;5053577;28;20198;-64
2021/05/24 03:29:10;;;;;;;0.75;0.75;;;17.40;56.10;;;;;;5053926;28;20618;-64
2021/05/24 03:31:35;;;;;;;0.98;0.90;;;17.40;56.10;;;;;;5054463;28;20175;-64
2021/05/24 03:34:01;;;;;;;1.38;0.85;;;17.40;56.10;;;;;;5053640;28;20579;-64
2021/05/24 03:36:26;;;;;;;0.82;0.82;;;17.40;56.10;;;;;;5054545;28;20203;-64
2021/05/24 03:38:52;;;;;;;0.98;0.90;;;17.40;56.10;;;;;;5053837;28;20222;-64
2021/05/24 03:41:18;;;;;;;1.10;1.00;;;17.40;56.10;;;;;;5053921;28;20175;-64
2021/05/24 03:43:45;;;;;;;1.50;0.85;;;17.40;56.10;;;;;;5054118;28;20206;-64
2021/05/24 03:46:10;;;;;;;0.77;0.70;;;17.40;56.10;;;;;;5054275;28;20182;-64
2021/05/24 03:48:37;;;;;;;1.00;0.90;;;17.30;56.10;;;;;;5053296;28;20182;-64
2021/05/24 03:51:06;;;;;;;0.70;0.70;;;17.30;56.10;;;;;;5054105;28;20179;-64
2021/05/24 03:53:31;;;;;;;0.70;0.70;;;17.30;56.10;;;;;;5054109;28;20178;-64
2021/05/24 03:55:57;;;;;;;2.15;1.05;;;17.30;56.10;;;;;;5053759;28;20215;-64
2021/05/24 03:58:22;;;;;;;0.98;0.80;;;17.40;56.10;;;;;;5054215;28;20186;-65
2021/05/24 04:00:48;;;;;;;1.25;1.02;;;17.30;56.10;;;;;;5053543;28;20201;-64
2021/05/24 04:03:13;;;;;;;1.02;0.90;;;17.30;56.10;;;;;;5053244;28;20186;-64
2021/05/24 04:05:40;;;;;;;0.80;0.80;;;17.30;56.00;;;;;;5053671;28;20190;-64
2021/05/24 04:08:07;;;;;;;0.93;0.80;;;17.30;56.10;;;;;;5053684;28;20546;-64
2021/05/24 04:10:55;;;;;;;0.73;0.73;;;17.30;56.10;;;;;;5053118;28;20221;-64
2021/05/24 04:13:21;;;;;;;1.10;1.00;;;17.30;56.10;;;;;;5053825;28;20186;-63
2021/05/24 04:15:49;;;;;;;1.27;0.80;;;17.30;56.10;;;;;;5052734;28;20198;-64
2021/05/24 04:18:17;;;;;;;0.70;0.70;;;17.30;56.10;;;;;;5053550;28;20237;-64
2021/05/24 04:20:44;;;;;;;0.80;0.80;;;17.30;56.10;;;;;;5053261;28;21336;-64
2021/05/24 04:23:09;;;;;;;1.08;0.73;;;17.30;56.10;;;;;;5052940;28;20198;-64
2021/05/24 04:25:35;;;;;;;1.55;1.27;;;17.30;56.10;;;;;;5053396;28;20588;-64
2021/05/24 04:28:00;;;;;;;0.80;0.73;;;17.30;56.10;;;;;;5053541;28;20175;-64
2021/05/24 04:30:26;;;;;;;0.60;0.60;;;17.30;56.10;;;;;;5053015;28;20163;-64
2021/05/24 04:32:51;;;;;;;1.20;0.90;;;17.30;56.10;;;;;;5053039;28;20174;-64
2021/05/24 04:35:17;;;;;;;1.38;0.70;;;17.30;56.10;;;;;;5053313;28;20232;-64
2021/05/24 04:37:43;;;;;;;1.25;0.70;;;17.30;56.10;;;;;;5052362;28;20195;-64
2021/05/24 04:40:09;;;;;;;0.77;0.77;;;17.30;56.10;;;;;;5053047;28;20229;-64
2021/05/24 04:42:34;;;;;;;1.38;0.90;;;17.30;56.10;;;;;;5052098;28;20225;-64
2021/05/24 04:45:00;;;;;;;0.75;0.57;;;17.30;56.10;;;;;;5052464;28;20627;-64
2021/05/24 04:47:25;;;;;;;1.00;0.90;;;17.30;56.10;;;;;;5053205;28;20171;-64
2021/05/24 04:49:51;;;;;;;1.08;0.90;;;17.30;56.10;;;;;;5052567;28;20225;-64
2021/05/24 04:52:17;;;;;;;0.77;0.77;;;17.30;56.10;;;;;;5052203;28;20583;-64
2021/05/24 04:54:43;;;;;;;0.82;0.80;;;17.30;56.10;;;;;;5052588;28;20691;-64
2021/05/24 04:57:11;;;;;;;1.30;0.80;;;17.30;56.10;;;;;;5052810;28;20219;-65
2021/05/24 04:59:37;;;;;;;1.63;0.73;;;17.30;56.10;;;;;;5051964;28;20266;-65
2021/05/24 05:02:03;;;;;;;0.90;0.85;;;17.30;56.10;;;;;;5052741;28;20203;-64
2021/05/24 05:04:28;;;;;;;0.70;0.70;;;17.30;56.20;;;;;;5053107;28;20237;-64
2021/05/24 05:06:56;;;;;;;1.00;0.88;;;17.40;56.20;;;;;;5051886;28;20630;-64
2021/05/24 05:09:22;;;;;;;0.65;0.65;;;17.40;56.20;;;;;;5052879;28;20183;-64
2021/05/24 05:11:47;;;;;;;0.80;0.70;;;17.50;56.30;;;;;;5052383;28;20590;-64
2021/05/24 05:14:13;;;;;;;0.60;0.60;;;17.50;56.70;;;;;;5051998;28;20171;-64
2021/05/24 05:16:38;;;;;;;1.52;0.65;;;17.70;56.20;;;;;;5052288;28;20305;-64
2021/05/24 05:19:04;;;;;;;1.08;0.75;;;17.70;56.10;;;;;;5052129;28;20167;-64
2021/05/24 05:21:29;;;;;;;0.60;0.60;;;17.80;56.00;;;;;;5052863;28;20657;-64
2021/05/24 05:23:55;;;;;;;0.77;0.77;;;17.90;55.80;;;;;;5034526;28;20183;-64
2021/05/24 05:26:20;;;;;;;0.57;0.50;;;18.10;55.60;;;;;;5051888;28;20563;-64
2021/05/24 05:28:46;;;;;;;0.63;0.60;;;18.20;55.50;;;;;;5052529;28;20178;-63
2021/05/24 05:31:12;;;;;;;1.00;0.77;;;18.30;55.40;;;;;;5052392;28;20171;-64
2021/05/24 05:33:37;;;;;;;1.90;1.20;;;18.40;55.00;;;;;;5051837;28;20171;-64
2021/05/24 05:36:03;;;;;;;0.75;0.60;;;18.50;54.80;;;;;;5052183;28;20226;-64
2021/05/24 05:38:30;;;;;;;0.52;0.52;;;18.70;54.60;;;;;;5052483;28;20179;-64
2021/05/24 05:40:56;;;;;;;1.25;0.70;;;18.70;54.50;;;;;;5051860;28;20557;-64
2021/05/24 05:43:21;;;;;;;0.82;0.60;;;18.90;54.30;;;;;;5052470;28;20258;-64
2021/05/24 05:45:47;;;;;;;0.40;0.40;;;18.90;54.20;;;;;;5051972;28;20174;-64
2021/05/24 05:48:13;;;;;;;0.80;0.65;;;19.00;54.20;;;;;;5051493;28;20194;-64
2021/05/24 05:50:38;;;;;;;1.33;0.70;;;18.90;54.10;;;;;;5052313;28;20217;-63
2021/05/24 05:53:04;;;;;;;0.50;0.50;;;18.90;54.30;;;;;;5054073;28;20236;-64
2021/05/24 05:55:30;;;;;;;0.60;0.60;;;18.90;54.30;;;;;;5055594;28;20644;-64
2021/05/24 05:57:55;;;;;;;0.50;0.50;;;18.80;54.40;;;;;;5056484;28;20241;-64
2021/05/24 06:00:21;;;;;;;1.08;1.00;;;18.80;54.50;;;;;;5056120;28;20541;-64
2021/05/24 06:02:47;;;;;;;0.43;0.43;;;18.70;54.60;;;;;;5055053;28;20540;-64
2021/05/24 06:05:13;;;;;;;0.68;0.60;;;18.70;54.70;;;;;;5056380;28;20179;-64
2021/05/24 06:07:38;;;;;;;1.25;0.70;;;18.60;54.80;;;;;;5055910;28;20199;-64
2021/05/24 06:10:05;;;;;;;0.90;0.60;;;18.60;54.90;;;;;;5055368;28;20641;-64
2021/05/24 06:12:30;;;;;;;0.50;0.50;;;18.60;55.00;;;;;;5056084;28;20227;-63
2021/05/24 06:14:57;;;;;;;0.73;0.73;;;18.50;55.00;;;;;;5055947;28;20179;-64
2021/05/24 06:17:23;;;;;;;0.68;0.68;;;18.50;55.10;;;;;;5055450;28;20210;-63
2021/05/24 06:19:48;;;;;;;0.88;0.50;;;18.50;55.20;;;;;;5055464;28;20182;-64
2021/05/24 06:22:14;;;;;;;1.27;0.63;;;18.40;55.20;;;;;;5055958;28;20175;-64
2021/05/24 06:24:39;;;;;;;0.63;0.57;;;18.40;55.30;;;;;;5054836;28;20171;-64
2021/05/24 06:27:05;;;;;;;0.77;0.70;;;18.40;55.30;;;;;;5055699;28;20179;-64
2021/05/24 06:29:32;;;;;;;0.70;0.70;;;18.30;55.40;;;;;;5054927;28;20649;-64
2021/05/24 06:31:57;;;;;;;0.63;0.57;;;18.30;55.50;;;;;;5055854;28;20191;-64
2021/05/24 06:34:23;;;;;;;0.85;0.60;;;18.30;55.60;;;;;;5055578;28;20175;-64
2021/05/24 06:36:48;;;;;;;0.50;0.50;;;18.30;55.60;;;;;;5054363;28;20554;-64
2021/05/24 06:39:14;;;;;;;0.60;0.60;;;18.20;55.60;;;;;;5055596;28;20751;-64
2021/05/24 06:41:39;;;;;;;0.60;0.60;;;18.20;55.70;;;;;;5055212;28;20186;-64
2021/05/24 06:44:05;;;;;;;0.50;0.50;;;18.20;55.70;;;;;;5054808;28;20167;-64
2021/05/24 06:46:31;;;;;;;0.60;0.60;;;18.20;55.70;;;;;;5055454;28;20207;-64
2021/05/24 06:48:56;;;;;;;0.98;0.57;;;18.20;55.70;;;;;;5055308;28;20167;-64
2021/05/24 06:51:22;;;;;;;0.55;0.55;;;18.20;55.80;;;;;;5054704;28;20175;-64
2021/05/24 06:53:47;;;;;;;0.90;0.63;;;18.20;55.80;;;;;;5054966;28;20630;-64
2021/05/24 06:56:14;;;;;;;0.70;0.70;;;18.20;55.90;;;;;;5055256;28;20211;-65
2021/05/24 06:58:39;;;;;;;1.02;0.63;;;18.10;55.90;;;;;;5054408;28;20175;-65
2021/05/24 07:01:05;;;;;;;0.85;0.65;;;18.10;55.90;;;;;;5055231;28;20174;-64
2021/05/24 07:03:30;;;;;;;0.47;0.47;;;18.10;55.90;;;;;;5054920;28;20179;-68
2021/05/24 07:05:56;;;;;;;1.80;0.60;;;18.10;55.90;;;;;;5053456;28;20206;-64
2021/05/24 07:08:22;;;;;;;0.90;0.60;;;18.10;56.00;;;;;;5055016;28;20748;-63
2021/05/24 07:10:48;;;;;;;0.75;0.60;;;18.10;56.20;;;;;;5054683;28;20251;-66
2021/05/24 07:13:13;;;;;;;0.95;0.60;;;18.10;56.10;;;;;;5054069;28;20172;-66
2021/05/24 07:15:39;;;;;;;1.63;0.73;;;18.00;56.10;;;;;;5054517;28;20269;-66
2021/05/24 07:18:05;;;;;;;1.23;0.70;;;18.10;56.40;;;;;;5054788;28;20206;-66
2021/05/24 07:20:30;;;;;;;1.10;0.80;;;18.00;56.40;;;;;;5054498;28;20270;-67
2021/05/24 07:22:56;;;;;;;1.55;0.80;;;18.00;56.50;;;;;;5055048;28;20181;-67
2021/05/24 07:25:21;;;;;;;1.05;0.80;;;18.00;56.50;;;;;;5055514;28;20171;-67
2021/05/24 07:27:47;;;;;;;1.35;0.80;;;18.00;56.50;;;;;;5053989;28;20175;-66
2021/05/24 07:30:16;;;;;;;1.40;0.80;;;18.00;56.50;;;;;;5055074;28;20175;-71
2021/05/24 07:32:41;;;;;;;3.97;1.25;;;17.90;56.70;;;;;;5054188;28;20179;-64
2021/05/24 07:35:07;;;;;;;1.42;0.75;;;17.90;56.70;;;;;;5054695;28;20217;-66
2021/05/24 07:37:33;;;;;;;2.42;0.80;;;17.90;56.60;;;;;;5054407;28;20226;-64
2021/05/24 07:39:58;;;;;;;1.60;0.85;;;17.90;56.60;;;;;;5053024;28;20280;-65
2021/05/24 07:42:24;;;;;;;3.78;1.00;;;17.90;56.60;;;;;;5054241;28;20626;-65
2021/05/24 07:44:49;;;;;;;1.30;0.73;;;18.00;56.80;;;;;;5053924;28;20175;-64
2021/05/24 07:47:15;;;;;;;2.90;0.70;;;17.90;56.80;;;;;;5053831;28;20182;-64
2021/05/24 07:49:40;;;;;;;3.85;0.82;;;17.90;56.80;;;;;;5054096;28;20171;-63
2021/05/24 07:52:06;;;;;;;2.60;0.75;;;17.90;56.80;;;;;;5054173;28;20175;-63
2021/05/24 07:54:32;;;;;;;2.60;0.77;;;18.00;56.90;;;;;;5053210;28;20171;-64
2021/05/24 07:56:57;;;;;;;2.10;0.90;;;18.00;56.90;;;;;;5054392;28;20213;-64
2021/05/24 07:59:23;;;;;;;1.67;0.90;;;18.00;56.90;;;;;;5055251;28;20179;-64
2021/05/24 08:01:48;;;;;;;2.00;0.80;;;18.00;56.90;;;;;;5053030;28;20261;-65
2021/05/24 08:04:14;;;;;;;2.00;1.20;;;18.00;56.90;;;;;;5054030;28;20163;-65
2021/05/24 08:06:39;;;;;;;2.05;0.90;;;18.00;56.90;;;;;;5053677;28;20168;-64
2021/05/24 08:09:05;;;;;;;1.33;0.60;;;18.00;56.90;;;;;;5053111;28;20237;-64
2021/05/24 08:11:31;;;;;;;1.85;0.95;;;18.00;57.00;;;;;;5053611;28;20180;-67
2021/05/24 08:13:56;;;;;;;1.92;0.70;;;18.00;57.10;;;;;;5053902;28;20174;-67
2021/05/24 08:16:22;;;;;;;2.40;1.25;;;18.00;57.70;;;;;;5052985;28;20242;-68
2021/05/24 08:18:47;;;;;;;1.02;0.90;;;18.00;57.00;;;;;;5053279;28;20274;-67
2021/05/24 08:21:13;;;;;;;1.67;0.80;;;18.00;57.00;;;;;;5053516;28;20660;-68
2021/05/24 08:23:39;;;;;;;2.50;0.95;;;18.00;57.00;;;;;;5052773;28;20168;-67
2021/05/24 08:26:04;;;;;;;2.85;1.00;;;17.90;57.00;;;;;;5053305;28;20183;-66
2021/05/24 08:28:30;;;;;;;1.80;0.80;;;17.90;57.00;;;;;;5053484;28;20245;-65
2021/05/24 08:30:55;;;;;;;1.65;0.75;;;17.90;57.10;;;;;;5052900;28;20179;-65
2021/05/24 08:33:22;;;;;;;1.20;0.80;;;17.90;57.20;;;;;;5053188;28;20679;-68
2021/05/24 08:35:50;;;;;;;2.60;0.70;;;17.90;57.40;;;;;;5052835;28;20635;-72
2021/05/24 08:38:16;;;;;;;2.22;0.75;;;17.90;57.40;;;;;;5053002;28;20610;-72
2021/05/24 08:40:42;;;;;;;2.40;1.02;;;17.90;57.30;;;;;;5052788;28;20227;-73
2021/05/24 08:43:08;;;;;;;1.25;0.70;;;17.90;57.30;;;;;;5052310;28;20656;-74
2021/05/24 08:45:36;;;;;;;0.88;0.80;;;17.90;57.10;;;;;;5035182;28;20190;-69
2021/05/24 08:48:02;;;;;;;2.95;1.02;;;17.90;57.30;;;;;;5052992;28;20224;-71
2021/05/24 08:50:27;;;;;;;1.75;1.00;;;17.90;57.50;;;;;;5052233;28;20172;-72
2021/05/24 08:52:53;;;;;;;4.47;0.85;;;18.00;57.60;;;;;;5051299;28;20183;-70
2021/05/24 08:55:18;;;;;;;3.60;1.17;;;17.90;57.40;;;;;;5052294;28;20175;-70
2021/05/24 08:57:44;;;;;;;2.35;1.10;;;17.90;57.30;;;;;;5051600;28;20195;-71
2021/05/24 09:00:19;;;;;;;1.77;0.95;;;17.90;57.20;;;;;;5052926;28;20167;-71
2021/05/24 09:02:46;;;;;;;1.98;0.75;;;17.90;57.30;;;;;;5052118;28;20184;-70
2021/05/24 09:05:12;;;;;;;2.15;1.00;;;18.00;57.30;;;;;;5052065;28;20541;-70
2021/05/24 09:07:48;;;;;;;2.75;0.73;;;17.90;57.20;;;;;;5052341;28;20668;-70
2021/05/24 09:10:13;;;;;;;1.40;0.80;;;17.90;57.20;;;;;;5052894;28;20193;-69
2021/05/24 09:12:39;;;;;;;2.17;0.98;;;18.00;57.20;;;;;;5051988;28;20171;-69
2021/05/24 09:15:13;;;;;;;2.25;0.80;;;17.90;57.20;;;;;;5052742;28;20533;-70
2021/05/24 09:17:48;;;;;;;3.70;1.30;;;17.90;57.20;;;;;;5052271;28;20260;-70
2021/05/24 09:20:19;;;;;;;1.10;0.60;;;17.90;57.20;;;;;;5051776;28;20175;-70
2021/05/24 09:23:05;;;;;;;2.65;0.90;;;17.90;57.20;;;;;;5052664;28;20514;-70
2021/05/24 09:25:49;;;;;;;1.10;0.70;;;17.90;57.20;;;;;;5051639;28;20197;-69
2021/05/24 09:28:44;;;;;;;1.67;0.52;;;17.90;57.20;;;;;;5032141;28;20218;-69
2021/05/24 09:31:14;;;;;;;1.92;1.00;;;17.90;57.20;;;;;;5032816;28;20538;-69
2021/05/24 09:33:45;;;;;;;1.35;0.68;;;17.90;57.30;;;;;;5031634;28;20195;-70
2021/05/24 09:36:11;;;;;;;2.08;0.98;;;17.90;57.40;;;;;;5032716;28;20207;-70
2021/05/24 09:38:41;;;;;;;1.95;0.90;;;17.80;57.30;;;;;;5032273;28;20168;-70
2021/05/24 09:41:07;;;;;;;0.88;0.70;;;17.80;57.40;;;;;;5014393;28;20183;-70
2021/05/24 09:43:37;;;;;;;1.40;0.70;;;17.80;57.50;;;;;;5032011;28;20180;-70
2021/05/24 09:46:23;;;;;;;2.13;0.73;;;17.80;57.50;;;;;;5032504;28;20180;-70
2021/05/24 09:48:55;;;;;;;2.55;0.95;;;17.80;57.50;;;;;;5032175;28;20179;-71
2021/05/24 09:51:24;;;;;;;0.98;0.63;;;17.80;57.50;;;;;;5032703;28;20187;-70
2021/05/24 09:54:06;;;;;;;1.80;0.88;;;17.80;57.50;;;;;;5031286;28;20200;-70
2021/05/24 09:56:36;;;;;;;0.60;0.60;;;17.80;57.50;;;;;;5032168;28;20309;-71
2021/05/24 09:59:07;;;;;;;0.85;0.73;;;17.80;57.50;;;;;;5032380;28;20218;-71
2021/05/24 10:01:36;;;;;;;2.17;1.10;;;17.80;57.50;;;;;;5045793;28;20187;-71
2021/05/24 10:04:02;;;;;;;1.17;0.90;;;17.80;57.50;;;;;;5052008;28;20171;-70
2021/05/24 10:06:28;;;;;;;1.40;1.00;;;17.80;57.50;;;;;;5034713;28;20224;-70
2021/05/24 10:08:54;;;;;;;1.63;0.75;;;17.80;57.50;;;;;;5051237;28;20175;-70
2021/05/24 10:11:20;;;;;;;1.52;0.90;;;17.80;57.50;;;;;;5052255;28;20171;-69
2021/05/24 10:13:46;;;;;;;1.08;0.80;;;17.80;57.50;;;;;;5051860;28;20202;-69
2021/05/24 10:16:13;;;;;;;2.30;0.90;;;17.80;57.40;;;;;;5051625;28;20215;-70
2021/05/24 10:18:39;;;;;;;2.53;0.80;;;17.80;57.30;;;;;;5034110;28;20622;-70
2021/05/24 10:21:04;;;;;;;3.13;0.80;;;17.90;57.40;;;;;;5051962;28;20262;-70
2021/05/24 10:23:30;;;;;;;0.80;0.80;;;17.90;57.30;;;;;;5051737;28;20171;-70
2021/05/24 10:26:00;;;;;;;1.08;0.80;;;17.90;57.40;;;;;;5051801;28;20175;-69
2021/05/24 10:28:29;;;;;;;1.52;0.70;;;17.80;57.30;;;;;;5034567;28;20179;-68
2021/05/24 10:30:55;;;;;;;1.00;0.80;;;17.80;57.40;;;;;;5033528;28;20180;-70
2021/05/24 10:33:25;;;;;;;2.20;0.75;;;17.80;57.50;;;;;;5052134;28;20574;-69
2021/05/24 10:35:51;;;;;;;1.85;0.93;;;17.70;57.50;;;;;;5050960;28;20179;-69
2021/05/24 10:38:27;;;;;;;1.02;0.80;;;17.80;57.60;;;;;;5052236;28;20171;-68
2021/05/24 10:41:14;;;;;;;1.75;0.77;;;17.80;57.60;;;;;;5055243;28;20567;-68
2021/05/24 10:43:40;;;;;;;2.05;0.70;;;17.80;57.60;;;;;;5054498;28;20179;-63
2021/05/24 10:46:24;;;;;;;3.13;0.80;;;17.80;57.50;;;;;;5055422;28;20587;-63
2021/05/24 10:49:17;;;;;;;0.55;0.55;;;17.90;57.60;;;;;;5055005;28;20175;-63
2021/05/24 10:51:55;;;;;;;3.15;0.90;;;17.90;57.50;;;;;;5051668;28;20179;-63
2021/05/24 10:54:24;;;;;;;3.10;1.00;;;18.00;57.40;;;;;;5055538;28;20514;-71
2021/05/24 10:57:02;;;;;;;4.22;0.82;;;18.00;57.30;;;;;;5054109;28;20272;-64
2021/05/24 10:59:42;;;;;;;1.95;0.80;;;18.10;57.30;;;;;;5055096;28;20537;-63
2021/05/24 11:02:08;;;;;;;1.05;0.90;;;18.10;57.30;;;;;;5054925;28;20711;-63
2021/05/24 11:04:58;;;;;;;3.38;0.82;;;18.10;57.20;;;;;;5054034;28;20202;-74
2021/05/24 11:07:32;;;;;;;1.33;0.82;;;18.10;57.20;;;;;;5055209;28;20586;-69
2021/05/24 11:10:16;;;;;;;2.35;0.80;;;18.10;57.20;;;;;;5055085;28;20204;-67
2021/05/24 11:12:44;;;;;;;2.38;0.80;;;18.10;57.30;;;;;;5053950;28;20265;-65
2021/05/24 11:15:22;;;;;;;7.13;1.27;;;18.10;57.40;;;;;;5054710;28;20297;-65
2021/05/24 11:18:00;;;;;;;5.72;1.13;;;18.10;57.40;;;;;;5053879;28;20234;-66
2021/05/24 11:20:49;;;;;;;4.70;1.15;;;18.10;57.50;;;;;;5054937;28;20183;-64
2021/05/24 11:28:16;;;;;;;3.03;0.90;;;18.10;57.50;;;;;;5037754;28;20526;-65
2021/05/24 11:30:42;;;;;;;3.13;0.57;;;18.10;57.30;;;;;;5054328;28;20253;-66
2021/05/24 11:33:36;;;;;;;0.73;0.73;;;18.10;57.30;;;;;;5036169;28;20175;-65
2021/05/24 11:36:06;;;;;;;3.65;0.82;;;18.10;57.20;;;;;;5054595;28;20249;-66
2021/05/24 11:38:32;;;;;;;0.82;0.70;;;18.20;57.20;;;;;;5053930;28;20652;-67
2021/05/24 11:41:11;;;;;;;4.80;1.00;;;18.20;57.00;;;;;;5053277;28;20251;-66
2021/05/24 11:43:42;;;;;;;1.83;0.73;;;18.20;57.10;;;;;;5054303;28;20193;-67
2021/05/24 11:46:08;;;;;;;1.15;0.70;;;18.40;57.20;;;;;;5053647;28;20232;-67
2021/05/24 11:48:41;;;;;;;2.58;0.88;;;18.20;57.10;;;;;;5054145;28;20183;-67
2021/05/24 11:51:07;;;;;;;2.38;0.90;;;18.20;57.00;;;;;;5053660;28;20179;-66
2021/05/24 11:53:33;;;;;;;2.70;0.77;;;18.20;57.10;;;;;;5053208;28;20187;-67
2021/05/24 11:56:11;;;;;;;3.10;0.70;;;18.20;57.10;;;;;;5053788;28;20195;-66
2021/05/24 11:58:56;;;;;;;1.35;0.88;;;18.20;57.00;;;;;;5053759;28;20221;-66
2021/05/24 12:01:21;;;;;;;1.15;0.70;;;18.20;57.00;;;;;;5053370;28;20559;-66
2021/05/24 12:03:47;;;;;;;0.95;0.60;;;18.20;57.00;;;;;;5053681;28;20673;-67
2021/05/24 12:06:13;;;;;;;0.82;0.60;;;18.20;57.00;;;;;;5054093;28;20179;-67
2021/05/24 12:08:41;;;;;;;0.88;0.60;;;18.30;57.00;;;;;;5052839;28;20241;-67
2021/05/24 12:11:08;;;;;;;2.70;0.63;;;18.30;56.90;;;;;;5053559;28;20171;-66
2021/05/24 12:13:57;;;;;;;1.60;0.82;;;18.30;56.80;;;;;;5053355;28;20626;-66
2021/05/24 12:16:23;;;;;;;1.30;0.60;;;18.30;56.80;;;;;;5053100;28;20210;-66
2021/05/24 12:18:59;;;;;;;1.02;0.60;;;18.30;56.80;;;;;;5053339;28;20177;-66
2021/05/24 12:21:37;;;;;;;0.63;0.63;;;18.30;56.80;;;;;;5052844;28;20543;-66
2021/05/24 12:24:05;;;;;;;1.83;0.88;;;18.30;56.90;;;;;;5053259;28;20167;-66
2021/05/24 12:26:30;;;;;;;0.95;0.50;;;18.20;57.00;;;;;;5035565;28;20199;-66
2021/05/24 12:28:56;;;;;;;1.80;0.75;;;18.10;57.10;;;;;;5052846;28;20210;-66
2021/05/24 12:31:22;;;;;;;1.52;0.70;;;18.10;57.20;;;;;;5035775;28;20171;-66
2021/05/24 12:33:47;;;;;;;0.60;0.60;;;18.00;57.30;;;;;;5037226;28;20179;-66
2021/05/24 12:36:17;;;;;;;2.50;0.82;;;18.00;57.30;;;;;;5038327;28;20199;-67
2021/05/24 12:38:48;;;;;;;0.93;0.63;;;18.00;57.30;;;;;;5035487;28;20515;-67
2021/05/24 12:41:15;;;;;;;1.90;0.65;;;18.00;57.40;;;;;;5036659;28;20179;-66
2021/05/24 12:43:55;;;;;;;1.00;0.80;;;18.00;57.40;;;;;;5034959;28;20183;-67
2021/05/24 12:46:21;;;;;;;4.18;0.90;;;18.00;57.30;;;;;;5053119;28;20232;-74
2021/05/24 12:48:51;;;;;;;2.60;0.70;;;18.10;57.30;;;;;;5052774;28;20179;-73
2021/05/24 12:51:27;;;;;;;2.58;0.75;;;18.20;57.20;;;;;;5052305;28;20630;-78
2021/05/24 12:53:55;;;;;;;2.10;0.90;;;18.30;57.10;;;;;;5053000;28;20202;-75
2021/05/24 12:56:20;;;;;;;0.75;0.70;;;18.30;57.10;;;;;;5052281;28;20294;-68